Time;durP1;ratioP1;P1;durP2;ratioP2;P2;SDS_P1;SDS_P2;PMS_P1;PMS_P2;Temp;Humidity;BMP_temperature;BMP_pressure;BME280_temperature;BME280_humidity;BME280_pressure;Samples;Min_cycle;Max_cycle;Signal;HPM_P1;HPM_P2
2021/10/12 00:00:18;;;;;;;8.52;5.95;;;22.90;56.00;;;;;;5191825;28;20056;-80
2021/10/12 00:02:51;;;;;;;9.52;6.10;;;22.90;56.00;;;;;;5208767;28;20052;-81
2021/10/12 00:05:23;;;;;;;9.27;6.22;;;22.90;56.00;;;;;;5208672;28;20051;-81
2021/10/12 00:07:56;;;;;;;7.78;6.18;;;22.90;56.10;;;;;;5211763;28;20056;-81
2021/10/12 00:10:28;;;;;;;9.40;6.35;;;22.90;56.10;;;;;;5211050;28;20055;-81
2021/10/12 00:13:02;;;;;;;11.68;6.18;;;22.90;56.10;;;;;;5205204;28;20403;-81
2021/10/12 00:15:34;;;;;;;9.97;6.50;;;22.90;56.10;;;;;;5209036;28;20048;-80
2021/10/12 00:18:07;;;;;;;8.25;5.75;;;22.90;56.20;;;;;;5184545;28;20045;-81
2021/10/12 00:20:39;;;;;;;10.35;5.72;;;22.90;56.20;;;;;;5196557;28;20045;-81
2021/10/12 00:23:12;;;;;;;7.70;5.97;;;22.90;56.20;;;;;;5219371;28;20075;-82
2021/10/12 00:25:45;;;;;;;7.13;5.78;;;22.90;56.20;;;;;;5216116;28;20051;-81
2021/10/12 00:28:17;;;;;;;7.65;6.68;;;22.90;56.20;;;;;;5200384;28;20053;-81
2021/10/12 00:30:51;;;;;;;9.68;6.50;;;22.80;56.20;;;;;;5215750;28;20068;-81
2021/10/12 00:33:24;;;;;;;8.20;6.43;;;22.90;56.30;;;;;;5211416;28;20052;-81
2021/10/12 00:35:56;;;;;;;8.23;6.05;;;22.80;56.30;;;;;;5199715;28;20044;-81
2021/10/12 00:38:29;;;;;;;11.57;6.55;;;22.80;56.30;;;;;;5217344;28;20040;-80
2021/10/12 00:41:05;;;;;;;7.63;5.80;;;22.80;56.30;;;;;;5214805;28;20478;-81
2021/10/12 00:43:38;;;;;;;8.45;6.03;;;22.80;56.30;;;;;;5207165;28;20053;-81
2021/10/12 00:46:11;;;;;;;7.30;6.00;;;22.90;56.80;;;;;;5208827;28;20059;-81
2021/10/12 00:48:44;;;;;;;7.45;5.93;;;22.80;56.30;;;;;;5196792;28;20569;-82
2021/10/12 00:51:16;;;;;;;11.33;6.50;;;22.80;56.40;;;;;;5206208;28;20518;-81
2021/10/12 00:53:49;;;;;;;8.77;5.90;;;22.80;56.40;;;;;;5189181;28;20063;-83
2021/10/12 00:56:22;;;;;;;8.18;6.32;;;22.80;56.40;;;;;;5177560;28;20041;-81
2021/10/12 00:58:55;;;;;;;7.35;6.28;;;22.80;56.40;;;;;;5174861;28;20041;-83
2021/10/12 01:01:27;;;;;;;9.80;6.27;;;22.80;56.50;;;;;;5186704;28;20045;-83
2021/10/12 01:04:00;;;;;;;8.00;6.50;;;22.80;56.50;;;;;;5191056;28;21547;-82
2021/10/12 01:06:33;;;;;;;9.48;6.47;;;22.80;56.50;;;;;;5189300;28;20569;-80
2021/10/12 01:09:05;;;;;;;9.02;6.43;;;22.80;56.50;;;;;;5188975;28;20514;-83
2021/10/12 01:11:38;;;;;;;8.73;6.13;;;22.80;56.50;;;;;;5191310;28;20578;-80
2021/10/12 01:14:10;;;;;;;10.93;6.40;;;22.80;56.50;;;;;;5191902;28;20119;-80
2021/10/12 01:16:43;;;;;;;8.40;5.88;;;22.80;56.50;;;;;;5200396;28;20760;-80
2021/10/12 01:19:16;;;;;;;7.95;6.20;;;22.80;56.50;;;;;;5174110;28;20474;-80
2021/10/12 01:21:49;;;;;;;8.40;6.13;;;22.80;56.50;;;;;;5189711;28;20327;-80
2021/10/12 01:24:22;;;;;;;8.65;5.85;;;22.80;56.50;;;;;;5185439;28;20056;-83
2021/10/12 01:26:55;;;;;;;8.93;6.07;;;22.80;56.50;;;;;;5185655;28;20049;-83
2021/10/12 01:29:27;;;;;;;8.65;6.13;;;22.80;56.60;;;;;;5189517;28;20122;-81
2021/10/12 01:32:00;;;;;;;9.35;5.97;;;22.80;56.50;;;;;;5188117;28;20410;-80
2021/10/12 01:34:33;;;;;;;10.20;6.65;;;22.80;56.60;;;;;;5184876;28;20057;-80
2021/10/12 01:37:05;;;;;;;9.90;6.27;;;22.80;56.60;;;;;;5187596;28;20630;-80
2021/10/12 01:39:38;;;;;;;10.80;6.60;;;22.80;56.60;;;;;;5190993;28;20386;-80
2021/10/12 01:42:10;;;;;;;13.18;6.28;;;22.80;56.70;;;;;;5191830;28;20388;-80
2021/10/12 01:44:43;;;;;;;9.40;6.60;;;22.80;56.70;;;;;;5195730;28;20071;-80
2021/10/12 01:47:15;;;;;;;9.70;6.35;;;22.80;56.70;;;;;;5190795;28;20048;-81
2021/10/12 01:49:48;;;;;;;12.07;5.78;;;22.80;56.70;;;;;;5185652;28;20053;-80
2021/10/12 01:52:21;;;;;;;10.65;6.07;;;22.80;56.70;;;;;;5188560;28;20457;-81
2021/10/12 01:54:53;;;;;;;8.30;5.80;;;22.80;56.70;;;;;;5190068;28;20072;-82
2021/10/12 01:57:26;;;;;;;10.87;6.03;;;22.80;56.70;;;;;;5180997;28;20048;-82
2021/10/12 01:59:59;;;;;;;7.70;5.55;;;22.80;56.80;;;;;;5168679;28;20704;-83
2021/10/12 02:02:31;;;;;;;7.95;5.75;;;22.80;57.00;;;;;;5190822;28;20052;-82
2021/10/12 02:05:05;;;;;;;9.05;6.18;;;22.80;56.80;;;;;;5184571;28;20414;-82
2021/10/12 02:07:37;;;;;;;9.60;6.03;;;22.80;56.80;;;;;;5187150;28;20040;-82
2021/10/12 02:10:10;;;;;;;6.68;5.90;;;22.80;56.80;;;;;;5193978;28;21457;-82
2021/10/12 02:12:42;;;;;;;11.27;6.30;;;22.80;56.90;;;;;;5188428;28;20064;-82
2021/10/12 02:15:15;;;;;;;7.55;5.22;;;22.80;56.80;;;;;;5162866;28;20049;-83
2021/10/12 02:17:48;;;;;;;8.20;5.30;;;22.80;56.90;;;;;;5174875;28;20479;-83
2021/10/12 02:20:20;;;;;;;7.40;5.70;;;22.80;56.80;;;;;;5173035;28;20376;-83
2021/10/12 02:22:53;;;;;;;7.47;5.50;;;22.70;56.80;;;;;;5189982;28;20044;-82
2021/10/12 02:25:25;;;;;;;8.20;6.22;;;22.70;56.90;;;;;;5182508;28;20045;-82
2021/10/12 02:27:58;;;;;;;7.95;5.70;;;22.80;56.90;;;;;;5189848;28;20410;-82
2021/10/12 02:30:30;;;;;;;8.20;6.07;;;22.80;56.90;;;;;;5168892;28;20053;-82
2021/10/12 02:33:03;;;;;;;8.40;5.72;;;22.70;56.90;;;;;;5179541;28;20483;-82
2021/10/12 02:35:36;;;;;;;9.18;5.63;;;22.70;57.00;;;;;;5199810;28;20048;-80
2021/10/12 02:38:09;;;;;;;8.88;5.88;;;22.70;57.00;;;;;;5206275;28;20048;-81
2021/10/12 02:40:42;;;;;;;9.93;6.17;;;22.80;57.00;;;;;;5217794;28;20881;-81
2021/10/12 02:43:14;;;;;;;10.75;5.85;;;22.70;57.00;;;;;;5205892;28;20414;-81
2021/10/12 02:45:50;;;;;;;11.13;5.88;;;22.70;57.00;;;;;;5194727;28;20072;-81
2021/10/12 02:48:23;;;;;;;11.30;6.05;;;22.70;57.70;;;;;;5197004;28;20414;-81
2021/10/12 02:50:56;;;;;;;12.68;6.25;;;22.70;57.00;;;;;;5202020;28;20071;-81
2021/10/12 02:53:29;;;;;;;16.92;6.47;;;22.70;57.10;;;;;;5203985;28;20060;-81
2021/10/12 02:56:01;;;;;;;14.13;6.47;;;22.70;57.20;;;;;;5202650;28;20380;-81
2021/10/12 02:58:34;;;;;;;13.18;6.28;;;22.70;57.10;;;;;;5214160;28;20499;-81
2021/10/12 03:01:06;;;;;;;11.32;5.80;;;22.70;57.10;;;;;;5202883;28;20040;-81
2021/10/12 03:03:39;;;;;;;13.07;5.43;;;22.70;57.10;;;;;;5195246;28;20049;-81
2021/10/12 03:06:13;;;;;;;14.60;6.18;;;22.70;57.20;;;;;;5201233;28;20068;-81
2021/10/12 03:08:46;;;;;;;13.18;5.60;;;22.70;57.10;;;;;;5200921;28;20402;-81
2021/10/12 03:11:18;;;;;;;9.32;5.65;;;22.70;57.10;;;;;;5202349;28;20049;-81
2021/10/12 03:13:51;;;;;;;12.20;5.93;;;22.70;57.10;;;;;;5202189;28;20119;-81
2021/10/12 03:16:24;;;;;;;9.07;5.97;;;22.70;57.10;;;;;;5181830;28;20288;-80
2021/10/12 03:18:56;;;;;;;13.60;6.55;;;22.70;57.00;;;;;;5199164;28;20060;-80
2021/10/12 03:21:34;;;;;;;9.85;5.45;;;22.70;57.00;;;;;;5183818;28;20049;-81
2021/10/12 03:24:06;;;;;;;8.20;5.53;;;22.70;57.00;;;;;;5202018;28;20052;-81
2021/10/12 03:26:38;;;;;;;7.95;5.60;;;22.70;57.00;;;;;;5171935;28;20052;-81
2021/10/12 03:29:11;;;;;;;9.63;5.30;;;22.70;57.00;;;;;;5201302;28;20486;-80
2021/10/12 03:31:44;;;;;;;15.97;6.03;;;22.70;56.90;;;;;;5185223;28;20051;-81
2021/10/12 03:34:16;;;;;;;9.87;5.63;;;22.70;57.00;;;;;;5203798;28;20049;-80
2021/10/12 03:36:49;;;;;;;6.90;5.30;;;22.70;57.10;;;;;;5183882;28;20854;-81
2021/10/12 03:39:22;;;;;;;9.00;4.70;;;22.70;57.00;;;;;;5198388;28;20634;-81
2021/10/12 03:41:55;;;;;;;10.23;6.03;;;22.70;57.00;;;;;;5181773;28;20510;-81
2021/10/12 03:44:29;;;;;;;7.43;5.25;;;22.70;57.00;;;;;;5200428;28;20478;-82
2021/10/12 03:47:02;;;;;;;8.27;5.90;;;22.60;56.90;;;;;;5196787;28;20589;-81
2021/10/12 03:49:34;;;;;;;6.97;5.30;;;22.60;56.90;;;;;;5200688;28;20056;-81
2021/10/12 03:52:07;;;;;;;7.22;5.35;;;22.60;56.90;;;;;;5196572;28;20083;-80
2021/10/12 03:54:39;;;;;;;9.25;5.30;;;22.60;56.90;;;;;;5198696;28;20486;-81
2021/10/12 03:57:12;;;;;;;8.17;5.70;;;22.60;56.90;;;;;;5201235;28;20052;-81
2021/10/12 03:59:44;;;;;;;8.48;4.90;;;22.60;56.90;;;;;;5187045;28;20052;-81
2021/10/12 04:02:17;;;;;;;7.18;4.63;;;22.60;56.90;;;;;;5185294;28;20517;-81
2021/10/12 04:04:49;;;;;;;6.67;4.97;;;22.60;56.90;;;;;;5193208;28;20060;-81
2021/10/12 04:07:22;;;;;;;9.10;5.05;;;22.60;56.90;;;;;;5195545;28;20310;-81
2021/10/12 04:09:55;;;;;;;7.47;5.28;;;22.60;56.90;;;;;;5188693;28;20088;-81
2021/10/12 04:12:27;;;;;;;8.50;5.05;;;22.70;56.90;;;;;;5190969;28;20054;-81
2021/10/12 04:15:00;;;;;;;5.70;4.68;;;22.60;56.90;;;;;;5187402;28;20257;-80
2021/10/12 04:17:32;;;;;;;6.13;4.68;;;22.60;56.90;;;;;;5193852;28;20273;-81
2021/10/12 04:20:05;;;;;;;6.00;4.70;;;22.60;56.90;;;;;;5197824;28;20458;-81
2021/10/12 04:22:38;;;;;;;6.03;4.60;;;22.70;56.90;;;;;;5181021;28;20049;-81
2021/10/12 04:25:10;;;;;;;5.50;4.72;;;22.60;56.80;;;;;;5205002;28;20037;-81
2021/10/12 04:27:43;;;;;;;6.15;4.90;;;22.70;56.90;;;;;;5193574;28;20041;-81
2021/10/12 04:30:16;;;;;;;6.07;4.70;;;22.70;56.90;;;;;;5187358;28;20064;-81
2021/10/12 04:32:48;;;;;;;7.20;5.30;;;22.60;56.90;;;;;;5200641;28;20529;-81
2021/10/12 04:35:20;;;;;;;5.30;4.63;;;22.60;56.80;;;;;;5170136;28;20087;-81
2021/10/12 04:37:53;;;;;;;6.60;4.70;;;22.70;56.90;;;;;;5174187;28;20513;-81
2021/10/12 04:40:25;;;;;;;6.53;4.72;;;22.70;56.90;;;;;;5197489;28;20045;-81
2021/10/12 04:43:02;;;;;;;8.40;5.00;;;22.70;57.00;;;;;;5185414;28;20041;-82
2021/10/12 04:45:37;;;;;;;6.93;5.30;;;22.70;56.90;;;;;;5179242;28;20068;-81
2021/10/12 04:48:10;;;;;;;6.00;4.28;;;22.70;56.90;;;;;;5190501;28;20477;-81
2021/10/12 04:50:42;;;;;;;9.98;4.78;;;22.80;56.90;;;;;;5188264;28;20049;-81
2021/10/12 04:53:16;;;;;;;5.80;5.15;;;22.70;56.80;;;;;;5170983;28;20577;-81
2021/10/12 04:55:49;;;;;;;7.63;4.72;;;22.80;57.50;;;;;;5196199;28;20037;-81
2021/10/12 04:58:22;;;;;;;6.83;4.17;;;22.80;56.90;;;;;;5159361;28;20274;-81
2021/10/12 05:00:54;;;;;;;14.70;5.47;;;22.80;57.00;;;;;;5183605;28;20044;-82
2021/10/12 05:03:27;;;;;;;11.93;4.53;;;22.80;57.00;;;;;;5157813;28;20063;-83
2021/10/12 05:06:00;;;;;;;;;;;22.80;57.10;;;;;;5162353;28;20052;-81
2021/10/12 05:08:34;;;;;;;20.80;5.22;;;22.80;57.20;;;;;;5177299;28;19932;-81
2021/10/12 05:11:07;;;;;;;9.20;4.77;;;22.80;57.20;;;;;;5191337;28;20620;-81
2021/10/12 05:13:40;;;;;;;12.13;5.45;;;22.80;57.20;;;;;;5165190;28;20079;-81
2021/10/12 05:16:13;;;;;;;20.95;5.75;;;22.80;57.20;;;;;;5158830;28;20056;-82
2021/10/12 05:18:47;;;;;;;18.65;6.00;;;22.80;57.20;;;;;;5185663;28;20076;-81
2021/10/12 05:21:20;;;;;;;20.25;4.90;;;22.80;57.20;;;;;;5178339;28;20448;-81
2021/10/12 05:23:53;;;;;;;16.02;5.38;;;22.80;57.20;;;;;;5182871;28;20044;-81
2021/10/12 05:26:26;;;;;;;10.77;4.25;;;22.80;57.20;;;;;;5174502;28;20040;-81
2021/10/12 05:28:58;;;;;;;12.60;5.20;;;22.80;57.20;;;;;;5189791;28;20052;-83
2021/10/12 05:31:31;;;;;;;14.60;5.10;;;22.80;57.10;;;;;;5181775;28;20052;-83
2021/10/12 05:34:04;;;;;;;11.77;5.38;;;22.80;57.10;;;;;;5203090;28;20053;-84
2021/10/12 05:36:37;;;;;;;10.98;5.70;;;22.90;57.20;;;;;;5208326;28;20060;-83
2021/10/12 05:39:09;;;;;;;16.27;5.20;;;22.90;57.20;;;;;;5202965;28;20044;-84
2021/10/12 05:41:42;;;;;;;17.65;4.88;;;22.90;57.10;;;;;;5209514;28;21100;-83
2021/10/12 05:44:15;;;;;;;7.97;5.10;;;22.90;57.10;;;;;;5208877;28;20052;-83
2021/10/12 05:46:47;;;;;;;12.68;4.65;;;22.90;57.20;;;;;;5207640;28;20069;-83
2021/10/12 05:49:20;;;;;;;10.83;4.63;;;22.90;57.10;;;;;;5208516;28;20411;-84
2021/10/12 05:51:52;;;;;;;14.33;4.63;;;22.90;57.10;;;;;;5203577;28;20052;-83
2021/10/12 05:54:28;;;;;;;8.90;4.38;;;22.90;57.10;;;;;;5222782;28;20417;-83
2021/10/12 05:57:06;;;;;;;7.32;4.28;;;22.90;57.10;;;;;;5207761;28;20418;-83
2021/10/12 05:59:39;;;;;;;11.63;4.35;;;22.90;57.10;;;;;;5207889;28;20042;-83
2021/10/12 06:02:11;;;;;;;7.95;4.93;;;22.90;57.10;;;;;;5186705;28;20052;-84
2021/10/12 06:04:44;;;;;;;8.18;4.47;;;22.90;57.10;;;;;;5182503;28;20041;-83
2021/10/12 06:07:17;;;;;;;7.88;4.47;;;22.90;57.10;;;;;;5207231;28;20063;-84
2021/10/12 06:09:49;;;;;;;9.77;4.45;;;22.90;57.10;;;;;;5208833;28;20072;-83
2021/10/12 06:12:22;;;;;;;13.25;5.03;;;22.90;57.10;;;;;;5210149;28;20037;-85
2021/10/12 06:14:54;;;;;;;10.73;4.75;;;22.90;57.00;;;;;;5154231;28;20052;-85
2021/10/12 06:17:27;;;;;;;13.52;4.30;;;22.90;57.10;;;;;;5175321;28;20045;-81
2021/10/12 06:19:59;;;;;;;8.38;4.43;;;22.90;57.10;;;;;;5182041;28;20037;-82
2021/10/12 06:22:32;;;;;;;8.52;4.68;;;22.90;57.10;;;;;;5193057;28;20415;-81
2021/10/12 06:25:05;;;;;;;21.30;4.57;;;23.00;57.10;;;;;;5215925;28;20037;-80
2021/10/12 06:27:38;;;;;;;7.28;3.90;;;23.00;57.10;;;;;;5176651;28;20245;-81
2021/10/12 06:30:11;;;;;;;7.90;4.25;;;23.00;57.10;;;;;;5204037;28;20558;-82
2021/10/12 06:32:44;;;;;;;8.88;4.47;;;23.00;57.10;;;;;;5203264;28;20045;-82
2021/10/12 06:35:17;;;;;;;7.53;3.90;;;23.00;57.10;;;;;;5193923;28;20087;-81
2021/10/12 06:37:49;;;;;;;8.13;4.22;;;23.00;57.20;;;;;;5200783;28;20506;-82
2021/10/12 06:40:22;;;;;;;7.67;4.73;;;23.00;57.10;;;;;;5203963;28;20608;-82
2021/10/12 06:42:55;;;;;;;6.93;4.38;;;23.00;57.10;;;;;;5204338;28;20045;-82
2021/10/12 06:45:28;;;;;;;10.10;4.00;;;23.00;57.10;;;;;;5201017;28;20041;-81
2021/10/12 06:48:00;;;;;;;7.47;4.13;;;23.00;57.10;;;;;;5178941;28;20053;-83
2021/10/12 06:50:33;;;;;;;7.32;3.72;;;23.00;57.10;;;;;;5208221;28;20053;-82
2021/10/12 06:53:06;;;;;;;6.80;4.38;;;23.00;57.10;;;;;;5203869;28;21421;-82
2021/10/12 06:55:38;;;;;;;8.18;3.97;;;23.00;57.20;;;;;;5198106;28;20053;-82
2021/10/12 06:58:10;;;;;;;8.10;4.05;;;23.00;57.20;;;;;;5197757;28;21593;-82
2021/10/12 07:00:43;;;;;;;9.05;4.30;;;23.00;57.10;;;;;;5181325;28;20398;-82
2021/10/12 07:03:16;;;;;;;6.65;3.90;;;23.00;57.20;;;;;;5184666;28;20045;-83
2021/10/12 07:05:48;;;;;;;7.72;4.32;;;23.00;57.10;;;;;;5204388;28;20068;-81
2021/10/12 07:08:21;;;;;;;7.65;4.40;;;23.00;57.10;;;;;;5185473;28;20880;-82
2021/10/12 07:10:55;;;;;;;4.65;3.50;;;23.00;57.20;;;;;;5200273;28;20044;-82
2021/10/12 07:13:30;;;;;;;5.22;4.03;;;23.00;57.10;;;;;;5184780;28;20045;-81
2021/10/12 07:16:03;;;;;;;5.43;3.70;;;23.00;57.20;;;;;;5216747;28;20055;-84
2021/10/12 07:18:36;;;;;;;4.13;3.40;;;23.00;57.20;;;;;;5217894;28;20076;-83
2021/10/12 07:21:08;;;;;;;8.90;4.05;;;23.00;57.20;;;;;;5225906;28;20041;-83
2021/10/12 07:23:40;;;;;;;6.40;3.88;;;23.00;57.20;;;;;;5226795;28;20053;-84
2021/10/12 07:26:13;;;;;;;6.97;4.22;;;23.00;57.20;;;;;;5220782;28;20048;-82
2021/10/12 07:28:45;;;;;;;6.28;3.75;;;23.00;57.20;;;;;;5232064;28;20053;-81
2021/10/12 07:31:18;;;;;;;7.72;4.15;;;23.00;57.20;;;;;;5209539;28;20490;-83
2021/10/12 07:33:50;;;;;;;6.87;4.60;;;23.00;57.20;;;;;;5246798;28;20509;-84
2021/10/12 07:36:23;;;;;;;6.75;4.05;;;23.00;57.20;;;;;;5200391;28;20060;-84
2021/10/12 07:38:56;;;;;;;6.68;4.07;;;23.00;57.20;;;;;;5210608;28;20041;-82
2021/10/12 07:41:33;;;;;;;6.25;3.88;;;23.00;57.20;;;;;;5198387;28;20041;-83
2021/10/12 07:44:06;;;;;;;11.90;4.10;;;23.00;57.20;;;;;;5208113;28;20049;-82
2021/10/12 07:46:39;;;;;;;;;;;23.00;57.20;;;;;;5191239;28;20049;-82
2021/10/12 07:49:11;;;;;;;6.25;3.90;;;23.00;57.30;;;;;;5183510;28;19925;-80
2021/10/12 07:51:45;;;;;;;4.60;3.63;;;23.00;57.30;;;;;;5210069;28;20045;-84
2021/10/12 07:54:25;;;;;;;5.55;4.15;;;23.00;57.30;;;;;;5207529;28;20048;-82
2021/10/12 07:56:57;;;;;;;8.52;4.05;;;23.00;57.30;;;;;;5207386;28;20049;-84
2021/10/12 07:59:29;;;;;;;7.93;3.47;;;23.00;57.30;;;;;;5206412;28;20042;-83
2021/10/12 08:02:02;;;;;;;6.35;3.40;;;23.00;57.30;;;;;;5219620;28;20052;-80
2021/10/12 08:04:35;;;;;;;7.50;3.63;;;23.00;57.30;;;;;;5213781;28;20375;-82
2021/10/12 08:07:09;;;;;;;6.83;3.57;;;23.00;57.30;;;;;;5226501;28;20056;-84
2021/10/12 08:09:41;;;;;;;;;;;23.00;57.30;;;;;;5210635;28;20313;-81
2021/10/12 08:12:14;;;;;;;7.55;3.92;;;23.00;57.30;;;;;;5210837;28;20396;-81
2021/10/12 08:14:51;;;;;;;4.60;3.73;;;23.00;57.30;;;;;;5212439;28;20399;-84
2021/10/12 08:17:24;;;;;;;5.68;4.10;;;23.00;57.90;;;;;;5214798;28;20045;-81
2021/10/12 08:19:57;;;;;;;18.13;5.07;;;23.00;57.30;;;;;;5213334;28;20045;-81
2021/10/12 08:22:29;;;;;;;5.25;3.67;;;23.00;57.30;;;;;;5213270;28;20037;-82
2021/10/12 08:25:03;;;;;;;6.20;3.40;;;23.00;57.30;;;;;;5216415;28;20052;-83
2021/10/12 08:27:36;;;;;;;7.10;4.23;;;23.00;57.30;;;;;;5214112;28;20072;-82
2021/10/12 08:30:11;;;;;;;6.07;3.90;;;23.00;57.30;;;;;;5217057;28;20044;-84
2021/10/12 08:32:44;;;;;;;5.43;4.35;;;23.00;57.30;;;;;;5214493;28;20057;-84
2021/10/12 08:35:16;;;;;;;5.00;3.40;;;23.00;57.20;;;;;;5215068;28;20055;-83
2021/10/12 08:37:49;;;;;;;6.35;3.83;;;23.10;57.30;;;;;;5215349;28;20051;-84
2021/10/12 08:40:21;;;;;;;4.30;3.50;;;23.10;57.30;;;;;;5194082;28;20722;-83
2021/10/12 08:42:54;;;;;;;5.15;3.80;;;23.10;57.40;;;;;;5210356;28;20052;-83
2021/10/12 08:45:26;;;;;;;6.60;4.00;;;23.00;57.30;;;;;;5196838;28;20048;-83
2021/10/12 08:47:59;;;;;;;5.25;3.63;;;23.10;57.30;;;;;;5211228;28;20607;-83
2021/10/12 08:50:33;;;;;;;5.25;3.50;;;23.10;57.30;;;;;;5213812;28;20625;-83
2021/10/12 08:53:08;;;;;;;4.00;3.28;;;23.00;57.30;;;;;;5211550;28;20818;-84
2021/10/12 08:55:40;;;;;;;5.37;3.33;;;23.10;57.40;;;;;;5198233;28;20060;-84
2021/10/12 08:58:13;;;;;;;5.82;3.38;;;23.10;57.40;;;;;;5214891;28;20300;-82
2021/10/12 09:00:45;;;;;;;5.43;3.92;;;23.10;57.40;;;;;;5200877;28;20040;-83
2021/10/12 09:03:39;;;;;;;5.07;3.35;;;23.10;57.40;;;;;;5213072;28;20052;-82
2021/10/12 09:06:12;;;;;;;8.02;3.88;;;23.10;57.40;;;;;;5209372;28;20061;-84
2021/10/12 09:08:44;;;;;;;5.00;3.33;;;23.00;57.40;;;;;;5194571;28;20052;-83
2021/10/12 09:11:22;;;;;;;4.20;3.40;;;23.10;57.40;;;;;;5202854;28;20311;-83
2021/10/12 09:14:02;;;;;;;5.35;3.55;;;23.10;57.40;;;;;;5212917;28;20046;-84
2021/10/12 09:16:40;;;;;;;5.78;3.80;;;23.10;57.40;;;;;;5205720;28;20053;-83
2021/10/12 09:19:15;;;;;;;4.95;3.70;;;23.10;57.40;;;;;;5205536;28;20041;-84
2021/10/12 09:21:49;;;;;;;6.40;3.38;;;23.10;57.40;;;;;;5189897;28;20041;-83
2021/10/12 09:24:24;;;;;;;4.72;3.53;;;23.10;57.50;;;;;;5203760;28;20050;-83
2021/10/12 09:27:02;;;;;;;4.28;3.40;;;23.10;57.40;;;;;;5199343;28;20052;-82
2021/10/12 09:29:40;;;;;;;5.13;3.58;;;23.10;57.40;;;;;;5207160;28;20048;-84
2021/10/12 09:32:13;;;;;;;6.65;3.72;;;23.10;57.40;;;;;;5215170;28;20049;-85
2021/10/12 09:34:46;;;;;;;6.97;3.72;;;23.10;57.50;;;;;;5213292;28;20049;-84
2021/10/12 09:37:19;;;;;;;5.13;3.58;;;23.10;57.40;;;;;;5209835;28;20047;-82
2021/10/12 09:39:51;;;;;;;4.80;3.60;;;23.10;57.50;;;;;;5185382;28;20049;-82
2021/10/12 09:42:24;;;;;;;6.80;3.60;;;23.10;57.40;;;;;;5227971;28;20045;-83
2021/10/12 09:44:59;;;;;;;5.63;3.53;;;23.10;57.40;;;;;;5212035;28;20053;-83
2021/10/12 09:47:39;;;;;;;7.28;3.28;;;23.10;57.40;;;;;;5214726;28;20056;-83
2021/10/12 09:50:14;;;;;;;5.40;3.20;;;23.10;57.40;;;;;;5215217;28;20059;-83
2021/10/12 09:52:46;;;;;;;4.28;3.42;;;23.10;57.40;;;;;;5198254;28;20049;-84
2021/10/12 09:55:39;;;;;;;5.10;3.53;;;23.10;57.40;;;;;;5210958;28;20052;-80
2021/10/12 09:58:11;;;;;;;5.90;3.67;;;23.10;57.40;;;;;;4511193;28;10000314;-80
2021/10/12 10:00:44;;;;;;;6.07;3.15;;;23.10;57.40;;;;;;5212097;28;20037;-80
2021/10/12 10:03:17;;;;;;;4.43;3.03;;;23.10;57.40;;;;;;5194597;28;20490;-80
2021/10/12 10:05:52;;;;;;;8.50;3.42;;;23.10;57.30;;;;;;5209800;28;20044;-80
2021/10/12 10:08:28;;;;;;;5.13;3.08;;;23.10;57.40;;;;;;5205607;28;20052;-80
2021/10/12 10:11:21;;;;;;;8.00;3.42;;;23.20;57.40;;;;;;5212085;28;20423;-80
2021/10/12 10:13:54;;;;;;;7.53;3.67;;;23.10;57.40;;;;;;5214589;28;20048;-80
2021/10/12 10:16:27;;;;;;;5.75;3.33;;;23.10;57.50;;;;;;5196582;28;20049;-79
2021/10/12 10:19:01;;;;;;;4.50;3.22;;;23.10;57.50;;;;;;5214530;28;20429;-79
2021/10/12 10:21:38;;;;;;;4.10;2.97;;;23.10;57.50;;;;;;5215495;28;20045;-79
2021/10/12 10:24:12;;;;;;;5.00;3.40;;;23.10;57.50;;;;;;5214321;28;20394;-79
2021/10/12 10:26:45;;;;;;;7.60;3.10;;;23.10;57.60;;;;;;5210741;28;20056;-79
2021/10/12 10:29:22;;;;;;;5.45;3.17;;;23.10;57.60;;;;;;5215037;28;20462;-79
2021/10/12 10:32:22;;;;;;;6.60;3.03;;;23.10;57.60;;;;;;5213620;28;20045;-79
2021/10/12 10:35:00;;;;;;;6.13;3.47;;;23.10;57.60;;;;;;5213493;28;20049;-78
2021/10/12 10:37:34;;;;;;;7.60;3.70;;;23.10;57.60;;;;;;5190556;28;20045;-79
2021/10/12 10:40:26;;;;;;;;;;;23.10;57.50;;;;;;5212085;28;20041;-79
2021/10/12 10:43:00;;;;;;;19.52;9.02;;;23.00;57.50;;;;;;5211123;28;20324;-79
2021/10/12 10:45:44;;;;;;;32.97;15.15;;;23.00;57.50;;;;;;5199506;28;20300;-79
2021/10/12 10:48:20;;;;;;;44.33;21.52;;;23.10;57.50;;;;;;5188105;28;20041;-79
2021/10/12 10:51:20;;;;;;;47.15;23.33;;;23.10;57.50;;;;;;5209252;28;20067;-79
2021/10/12 10:53:53;;;;;;;51.88;23.23;;;23.10;57.50;;;;;;5209914;28;20821;-79
2021/10/12 10:56:25;;;;;;;47.13;22.73;;;23.10;57.50;;;;;;5211325;28;20049;-79
2021/10/12 10:59:25;;;;;;;50.70;23.88;;;23.10;57.50;;;;;;5209244;28;20790;-79
2021/10/12 11:01:57;;;;;;;44.58;22.10;;;23.10;57.40;;;;;;5193053;28;20312;-79
2021/10/12 11:04:43;;;;;;;45.92;20.85;;;23.10;57.50;;;;;;5209440;28;20490;-79
2021/10/12 11:07:19;;;;;;;44.63;20.77;;;23.10;57.50;;;;;;5208056;28;20057;-79
2021/10/12 11:09:53;;;;;;;38.85;18.98;;;23.10;57.50;;;;;;5207123;28;20056;-79
2021/10/12 11:12:29;;;;;;;40.47;19.20;;;23.10;57.50;;;;;;5190600;28;20056;-79
2021/10/12 11:15:07;;;;;;;37.53;17.98;;;23.10;58.10;;;;;;5195297;28;20061;-79
2021/10/12 11:17:43;;;;;;;37.95;16.92;;;23.10;57.50;;;;;;5194488;28;20060;-80
2021/10/12 11:20:17;;;;;;;33.13;15.90;;;23.10;57.50;;;;;;5177633;28;20060;-79
2021/10/12 11:22:52;;;;;;;33.50;16.15;;;23.10;57.50;;;;;;5202044;28;20041;-79
2021/10/12 11:25:29;;;;;;;31.75;14.48;;;23.10;57.50;;;;;;5178640;28;20045;-79
2021/10/12 11:28:10;;;;;;;29.98;14.73;;;23.10;57.50;;;;;;5200580;28;20041;-79
2021/10/12 11:30:43;;;;;;;28.48;14.55;;;23.10;57.50;;;;;;5198713;28;20421;-80
2021/10/12 11:33:35;;;;;;;27.10;13.18;;;23.10;57.50;;;;;;5197446;28;20449;-79
2021/10/12 11:36:09;;;;;;;28.83;13.43;;;23.10;57.50;;;;;;5192976;28;20512;-80
2021/10/12 11:38:49;;;;;;;24.00;11.75;;;23.10;57.50;;;;;;5181349;28;20060;-79
2021/10/12 11:41:23;;;;;;;22.98;10.95;;;23.10;57.50;;;;;;5198963;28;20429;-79
2021/10/12 11:44:02;;;;;;;22.20;10.57;;;23.10;57.40;;;;;;5194229;28;20477;-80
2021/10/12 11:46:35;;;;;;;22.00;11.32;;;23.10;57.40;;;;;;5198698;28;20041;-80
2021/10/12 11:49:12;;;;;;;21.27;10.02;;;23.10;57.40;;;;;;5194072;28;20493;-80
2021/10/12 11:51:48;;;;;;;19.58;11.13;;;23.10;57.40;;;;;;5196201;28;20036;-80
2021/10/12 11:54:26;;;;;;;22.50;9.70;;;23.10;57.40;;;;;;5166654;28;20048;-80
2021/10/12 11:56:58;;;;;;;21.77;8.70;;;23.10;57.30;;;;;;5190967;28;20049;-79
2021/10/12 11:59:36;;;;;;;22.85;10.10;;;23.10;57.30;;;;;;5193507;28;20113;-80
2021/10/12 12:02:09;;;;;;;19.17;8.73;;;23.10;57.30;;;;;;5201670;28;20045;-79
2021/10/12 12:04:44;;;;;;;22.67;8.82;;;23.10;57.40;;;;;;5206020;28;20044;-80
2021/10/12 12:07:18;;;;;;;20.08;7.93;;;23.10;57.40;;;;;;4839602;28;10001309;-79
2021/10/12 12:09:51;;;;;;;18.90;8.70;;;23.10;57.40;;;;;;4517449;28;10000865;-80
2021/10/12 12:12:23;;;;;;;15.93;8.15;;;23.10;57.50;;;;;;5191438;28;20057;-80
2021/10/12 12:14:56;;;;;;;21.00;7.93;;;23.10;57.60;;;;;;5197836;28;20410;-84
2021/10/12 12:17:29;;;;;;;19.30;7.68;;;23.10;57.70;;;;;;5212050;28;20041;-84
2021/10/12 12:20:12;;;;;;;;;;;23.10;58.00;;;;;;5172087;28;20049;-86
2021/10/12 12:22:46;;;;;;;20.92;8.60;;;23.10;58.40;;;;;;5171444;28;19924;-85
2021/10/12 12:25:20;;;;;;;16.52;7.30;;;23.10;58.40;;;;;;5183572;28;20060;-89
2021/10/12 12:27:57;;;;;;;21.05;7.72;;;23.20;58.70;;;;;;5204840;28;20057;-86
2021/10/12 12:30:38;;;;;;;26.95;7.55;;;23.20;58.90;;;;;;5171282;28;20049;-87
2021/10/12 12:33:11;;;;;;;20.52;7.25;;;23.20;59.10;;;;;;5181080;28;20045;-86
2021/10/12 12:35:52;;;;;;;19.60;7.67;;;23.20;59.20;;;;;;5168688;28;20042;-87
2021/10/12 12:38:30;;;;;;;25.83;7.20;;;23.20;59.40;;;;;;5143597;28;20083;-87
2021/10/12 12:41:19;;;;;;;27.00;7.63;;;23.20;59.30;;;;;;5193709;28;20398;-86
2021/10/12 12:43:57;;;;;;;13.90;6.78;;;23.20;59.00;;;;;;5190464;28;20674;-86
2021/10/12 12:46:30;;;;;;;17.15;6.78;;;23.20;58.70;;;;;;5176499;28;20056;-87
2021/10/12 12:49:04;;;;;;;15.15;5.95;;;23.20;58.60;;;;;;5187794;28;20071;-84
2021/10/12 12:51:47;;;;;;;19.40;6.30;;;23.20;58.30;;;;;;5197566;28;21134;-80
2021/10/12 12:54:45;;;;;;;12.00;5.43;;;23.20;57.90;;;;;;5201708;28;20053;-81
2021/10/12 12:57:20;;;;;;;10.43;5.80;;;23.20;57.60;;;;;;5189962;28;20041;-81
2021/10/12 13:00:11;;;;;;;17.73;5.75;;;23.20;57.40;;;;;;5191350;28;20049;-80
2021/10/12 13:03:05;;;;;;;16.23;5.40;;;23.10;57.10;;;;;;5168793;28;20063;-80
2021/10/12 13:05:37;;;;;;;16.27;5.45;;;23.10;57.30;;;;;;5196538;28;20201;-79
2021/10/12 13:08:10;;;;;;;14.90;5.30;;;23.10;57.50;;;;;;5146472;28;20157;-80
2021/10/12 13:10:43;;;;;;;12.60;5.15;;;23.10;57.70;;;;;;5183988;28;20688;-78
2021/10/12 13:13:16;;;;;;;15.40;4.85;;;23.10;57.70;;;;;;5206910;28;20048;-79
2021/10/12 13:15:49;;;;;;;14.45;5.38;;;23.10;57.80;;;;;;5186845;28;20497;-79
2021/10/12 13:18:22;;;;;;;7.75;4.85;;;23.10;57.90;;;;;;5194131;28;20052;-77